Liverpool Express — DDSD2 — position and weather

sailwx.info

Track history (hours):
 
Tides and Currents Weather Stations Pressure Air Temp Water Temp Dewpoint Dewpoint Depression Visibility Wind Speed Wind Dir Waves Ship Positions

Liverpool Express

Last reported at 2016-Dec-04 20:32 UTC. Time now 2016-Dec-05 08:26 UTC.
Position N 35°12' W 028°38'.

Length 281 m; draft 12.3 m.

Type: Ship. MMSI: 218025000.

Date/timePositionNaut miles runAvg speedWind from/ knotsBaromVisibWave heightAir tempDewpointWater temp
2016-Dec-04 20:32N 35°12' W 028°38'7117.1
2016-Dec-04 16:21N 35°59' W 027°32'1517.1
2016-Dec-04 15:30N 36°09' W 027°18'3416.9
2016-Dec-04 13:31N 36°31' W 026°46'1617.2
2016-Dec-04 12:34N 36°41' W 026°31'610.2
2016-Dec-04 12:00N 36°42' W 026°24'1329.9 250 / 241008.3 5.4 20.018.518.7
2016-Dec-04 11:33N 36°53' W 026°15'1717.2
2016-Dec-04 10:33N 37°04' W 025°59'1717.1
2016-Dec-04 09:33N 37°15' W 025°43'1717.2
2016-Dec-04 08:33N 37°27' W 025°26'3717.1
2016-Dec-04 06:23N 37°52' W 024°52'1417.1
2016-Dec-04 05:33N 38°01' W 024°39'1717.2
2016-Dec-04 04:33N 38°13' W 024°23'1717.0
2016-Dec-04 03:33N 38°25' W 024°07'47217.1
2016-Dec-03 00:00N 43°42' W 016°24'55917.0 110 / 261004.7 5.4 15.512.814.5
2016-Dec-01 15:06N 49°45' W 006°04'916.8
2016-Dec-01 14:33N 49°45' W 005°50'1717.1
2016-Dec-01 13:33N 49°47' W 005°24'1817.9
2016-Dec-01 12:33N 49°50' W 004°57'1818.0
2016-Dec-01 11:33N 49°52' W 004°29'1817.7
2016-Dec-01 10:33N 49°54' W 004°02'1716.9
2016-Dec-01 09:33N 49°57' W 003°36'1615.7
2016-Dec-01 08:33N 49°59' W 003°12'1515.1
2016-Dec-01 07:33N 50°02' W 002°49'1515.1
2016-Dec-01 06:33N 50°06' W 002°26'1716.0
2016-Dec-01 05:29N 50°10' W 001°60'1617.8
2016-Dec-01 04:33N 50°14' W 001°35'1919.1
2016-Dec-01 03:33N 50°19' W 001°06'1919.5
2016-Dec-01 02:33N 50°24' W 000°37'1818.3
2016-Dec-01 01:34N 50°28' W 000°09'1717.3
2016-Dec-01 00:33N 50°33' E 000°17'1616.3
2016-Nov-30 23:33N 50°40' E 000°41'1615.8
2016-Nov-30 22:33N 50°48' E 001°02'1716.6
2016-Nov-30 21:33N 50°58' E 001°23'1919.2
2016-Nov-30 20:33N 51°13' E 001°43'1716.9
2016-Nov-30 19:33N 51°24' E 002°02'1616.2
2016-Nov-30 18:33N 51°22' E 002°28'1313.3
2016-Nov-30 17:33N 51°22' E 002°49'1716.7
2016-Nov-30 16:33N 51°25' E 003°16'1414.4
2016-Nov-30 15:33N 51°26' E 003°39'1111.4
2016-Nov-30 14:34N 51°22' E 003°56'8 7.8
2016-Nov-30 13:33N 51°22' E 004°08'7 6.6
2016-Nov-30 12:34N 51°18' E 004°16'0 0.1
2016-Nov-30 11:32N 51°18' E 004°16'0 0.0
2016-Nov-30 10:32N 51°18' E 004°16'0 0.0
2016-Nov-30 09:27N 51°18' E 004°16'0 0.0
2016-Nov-30 08:33N 51°18' E 004°16'0 0.0
2016-Nov-30 07:33N 51°18' E 004°16'0 0.0
2016-Nov-30 06:33N 51°18' E 004°16'0 0.0
2016-Nov-30 05:33N 51°18' E 004°16'0 0.0
2016-Nov-30 04:33N 51°18' E 004°16'0 0.0
2016-Nov-30 03:32N 51°18' E 004°16'0 0.0
2016-Nov-30 02:32N 51°18' E 004°16'0 0.0
2016-Nov-30 01:31N 51°18' E 004°16'0 0.0
2016-Nov-30 00:31N 51°18' E 004°16'0 0.0
2016-Nov-29 23:28N 51°18' E 004°16'0 0.0
2016-Nov-29 22:22N 51°18' E 004°16'0 0.0
2016-Nov-29 21:33N 51°18' E 004°16'1 1.1
2016-Nov-29 20:33N 51°19' E 004°16'7 6.6
2016-Nov-29 19:33N 51°22' E 004°07'8 7.7
2016-Nov-29 18:33N 51°22' E 003°55'10 9.8
2016-Nov-29 17:33N 51°26' E 003°41'1514.6
2016-Nov-29 16:34N 51°24' E 003°17'1616.4
2016-Nov-29 15:33N 51°25' E 002°51'1212.0
2016-Nov-29 14:34N 51°22' E 002°33'1616.3
2016-Nov-29 13:34N 51°19' E 002°07'1515.4
2016-Nov-29 12:34N 51°32' E 001°52'1616.0
2016-Nov-29 11:34N 51°47' E 001°43'1010.1
2016-Nov-29 10:33N 51°42' E 001°29'1616.4
2016-Nov-29 09:34N 51°32' E 001°08'1514.8
2016-Nov-29 08:33N 51°30' E 000°44'9 8.9
2016-Nov-29 07:34N 51°30' E 000°30'0 0.1
2016-Nov-29 06:34N 51°30' E 000°30'0 0.0
2016-Nov-29 05:33N 51°30' E 000°30'0 0.0
2016-Nov-29 04:33N 51°30' E 000°30'0 0.0
2016-Nov-29 03:34N 51°30' E 000°30'0 0.0
2016-Nov-29 02:34N 51°30' E 000°30'0 0.0
2016-Nov-29 01:34N 51°30' E 000°30'0 0.0
2016-Nov-29 00:33N 51°30' E 000°30'0 0.0
2016-Nov-28 23:33N 51°30' E 000°30'0 0.0
2016-Nov-28 22:34N 51°30' E 000°30'0 0.0
2016-Nov-28 21:33N 51°30' E 000°30'0 0.0
2016-Nov-28 20:33N 51°30' E 000°30'0 0.0
2016-Nov-28 19:33N 51°30' E 000°30'0 0.0
2016-Nov-28 18:34N 51°30' E 000°30'2 1.6
2016-Nov-28 17:33N 51°30' E 000°33'1414.0
2016-Nov-28 16:34N 51°29' E 000°55'1616.1
2016-Nov-28 15:34N 51°36' E 001°18'1616.3
2016-Nov-28 14:34N 51°49' E 001°34'9 9.3
2016-Nov-28 13:34N 51°50' E 001°49'15817.5
2016-Nov-28 04:32N 53°35' E 005°03'1717.4
2016-Nov-28 03:34N 53°40' E 005°31'1717.4
2016-Nov-28 02:33N 53°46' E 005°59'1817.7
2016-Nov-28 01:34N 53°51' E 006°27'5617.8
2016-Nov-27 22:24N 54°01' E 008°01'1314.7
2016-Nov-27 21:30N 53°59' E 008°23'1313.2
2016-Nov-27 20:33N 53°54' E 008°42'1312.5
2016-Nov-27 19:33N 53°52' E 009°03'1110.8
2016-Nov-27 18:33N 53°50' E 009°21'1514.8
2016-Nov-27 17:33N 53°37' E 009°33'1212.3
2016-Nov-27 16:33N 53°33' E 009°53'2 2.0
2016-Nov-27 15:33N 53°32' E 009°56'0 0.0
2016-Nov-27 14:33N 53°32' E 009°56'0 0.0
2016-Nov-27 13:33N 53°32' E 009°56'0 0.0
2016-Nov-27 12:32N 53°32' E 009°56'0 0.0
2016-Nov-27 11:33N 53°32' E 009°56'0 0.0
2016-Nov-27 10:34N 53°32' E 009°55'0 0.0
2016-Nov-27 09:32N 53°32' E 009°56'0 0.0
2016-Nov-27 08:31N 53°32' E 009°56'0 0.0
2016-Nov-27 07:33N 53°32' E 009°56'0 0.0
2016-Nov-27 06:32N 53°32' E 009°56'0 0.0
2016-Nov-27 05:33N 53°32' E 009°56'0 0.0
2016-Nov-27 04:32N 53°32' E 009°56'0 0.0
2016-Nov-27 03:32N 53°32' E 009°56'0 0.0
2016-Nov-27 02:32N 53°32' E 009°56'0 0.0
2016-Nov-27 01:32N 53°32' E 009°56'0 0.0
2016-Nov-27 00:32N 53°32' E 009°56'0 0.0
2016-Nov-26 23:33N 53°32' E 009°56'0 0.0
2016-Nov-26 22:33N 53°32' E 009°56'0 0.0
2016-Nov-26 21:32N 53°32' E 009°56'0 0.0
2016-Nov-26 20:32N 53°32' E 009°56'0 0.0
2016-Nov-26 19:32N 53°32' E 009°56'0 0.0
2016-Nov-26 18:32N 53°32' E 009°56'0 0.0
2016-Nov-26 17:32N 53°32' E 009°56'0 0.0
2016-Nov-26 16:32N 53°32' E 009°56'0 0.0
2016-Nov-26 15:32N 53°32' E 009°56'0 0.0
2016-Nov-26 14:33N 53°32' E 009°56'0 0.0
2016-Nov-26 13:31N 53°32' E 009°56'0 0.0
2016-Nov-26 12:32N 53°32' E 009°56'0 0.0
2016-Nov-26 11:33N 53°32' E 009°56'0 0.0
2016-Nov-26 10:32N 53°32' E 009°56'0 0.0
2016-Nov-26 09:33N 53°32' E 009°56'0 0.0
2016-Nov-26 08:33N 53°32' E 009°56'0 0.0
2016-Nov-26 07:33N 53°32' E 009°56'0 0.0
2016-Nov-26 06:32N 53°32' E 009°56'0 0.0
2016-Nov-26 05:32N 53°32' E 009°56'0 0.0
2016-Nov-26 04:32N 53°32' E 009°56'0 0.0
2016-Nov-26 03:31N 53°32' E 009°56'0 0.0
2016-Nov-26 02:31N 53°32' E 009°56'0 0.0
2016-Nov-26 01:32N 53°32' E 009°56'0 0.0
2016-Nov-26 00:32N 53°32' E 009°56'0 0.0
2016-Nov-25 23:32N 53°32' E 009°56'0 0.0
2016-Nov-25 22:32N 53°32' E 009°56'0 0.0
2016-Nov-25 21:32N 53°32' E 009°56'0 0.0
2016-Nov-25 20:32N 53°32' E 009°56'0 0.0
2016-Nov-25 19:32N 53°32' E 009°56'0 0.0
2016-Nov-25 18:32N 53°32' E 009°56'0 0.0
2016-Nov-25 17:33N 53°32' E 009°56'0 0.0
2016-Nov-25 16:33N 53°32' E 009°56'0 0.0
2016-Nov-25 15:33N 53°32' E 009°56'0 0.0
2016-Nov-25 14:33N 53°32' E 009°56'0 0.0
2016-Nov-25 13:33N 53°32' E 009°56'0 0.0
2016-Nov-25 12:33N 53°32' E 009°56'0 0.0
2016-Nov-25 11:33N 53°32' E 009°56'0 0.0
2016-Nov-25 10:34N 53°32' E 009°56'0 0.0
2016-Nov-25 09:33N 53°32' E 009°56'0 0.0
2016-Nov-25 08:33N 53°32' E 009°56'0 0.0
2016-Nov-25 07:33N 53°32' E 009°56'0 0.0
2016-Nov-25 06:33N 53°32' E 009°56'2 1.9
2016-Nov-25 05:33N 53°32' E 009°53'4 4.4
2016-Nov-25 04:33N 53°34' E 009°46'1010.4
2016-Nov-25 03:33N 53°39' E 009°31'1211.9
2016-Nov-25 02:34N 53°50' E 009°21'1111.1
2016-Nov-25 01:34N 53°52' E 009°03'1212.0
2016-Nov-25 00:34N 53°53' E 008°42'1514.9
2016-Nov-24 23:33N 53°59' E 008°20'1111.2
2016-Nov-24 22:33N 53°59' E 008°01'1614.1
2016-Nov-24 21:24N 53°56' E 007°34'  
Track history (hours):
 
Tides and Currents Weather Stations Pressure Air Temp Water Temp Dewpoint Dewpoint Depression Visibility Wind Speed Wind Dir Waves Ship Positions

Liverpool Express

Last reported at 2016-Dec-04 20:32 UTC. Time now 2016-Dec-05 08:26 UTC.
Position N 35°12' W 028°38'.

Length 281 m; draft 12.3 m.

Type: Ship. MMSI: 218025000.

Date/timePositionNaut miles runAvg speedWind from/ knotsBaromVisibWave heightAir tempDewpointWater temp
2016-Dec-04 20:32N 35°12' W 028°38'7117.1
2016-Dec-04 16:21N 35°59' W 027°32'1517.1
2016-Dec-04 15:30N 36°09' W 027°18'3416.9
2016-Dec-04 13:31N 36°31' W 026°46'1617.2
2016-Dec-04 12:34N 36°41' W 026°31'610.2
2016-Dec-04 12:00N 36°42' W 026°24'1329.9 250 / 241008.3 5.4 20.018.518.7
2016-Dec-04 11:33N 36°53' W 026°15'1717.2
2016-Dec-04 10:33N 37°04' W 025°59'1717.1
2016-Dec-04 09:33N 37°15' W 025°43'1717.2
2016-Dec-04 08:33N 37°27' W 025°26'3717.1
2016-Dec-04 06:23N 37°52' W 024°52'1417.1
2016-Dec-04 05:33N 38°01' W 024°39'1717.2
2016-Dec-04 04:33N 38°13' W 024°23'1717.0
2016-Dec-04 03:33N 38°25' W 024°07'47217.1
2016-Dec-03 00:00N 43°42' W 016°24'55917.0 110 / 261004.7 5.4 15.512.814.5
2016-Dec-01 15:06N 49°45' W 006°04'916.8
2016-Dec-01 14:33N 49°45' W 005°50'1717.1
2016-Dec-01 13:33N 49°47' W 005°24'1817.9
2016-Dec-01 12:33N 49°50' W 004°57'1818.0
2016-Dec-01 11:33N 49°52' W 004°29'1817.7
2016-Dec-01 10:33N 49°54' W 004°02'1716.9
2016-Dec-01 09:33N 49°57' W 003°36'1615.7
2016-Dec-01 08:33N 49°59' W 003°12'1515.1
2016-Dec-01 07:33N 50°02' W 002°49'1515.1
2016-Dec-01 06:33N 50°06' W 002°26'1716.0
2016-Dec-01 05:29N 50°10' W 001°60'1617.8
2016-Dec-01 04:33N 50°14' W 001°35'1919.1
2016-Dec-01 03:33N 50°19' W 001°06'1919.5
2016-Dec-01 02:33N 50°24' W 000°37'1818.3
2016-Dec-01 01:34N 50°28' W 000°09'1717.3
2016-Dec-01 00:33N 50°33' E 000°17'1616.3
2016-Nov-30 23:33N 50°40' E 000°41'1615.8
2016-Nov-30 22:33N 50°48' E 001°02'1716.6
2016-Nov-30 21:33N 50°58' E 001°23'1919.2
2016-Nov-30 20:33N 51°13' E 001°43'1716.9
2016-Nov-30 19:33N 51°24' E 002°02'1616.2
2016-Nov-30 18:33N 51°22' E 002°28'1313.3
2016-Nov-30 17:33N 51°22' E 002°49'1716.7
2016-Nov-30 16:33N 51°25' E 003°16'1414.4
2016-Nov-30 15:33N 51°26' E 003°39'1111.4
2016-Nov-30 14:34N 51°22' E 003°56'8 7.8
2016-Nov-30 13:33N 51°22' E 004°08'7 6.6
2016-Nov-30 12:34N 51°18' E 004°16'0 0.1
2016-Nov-30 11:32N 51°18' E 004°16'0 0.0
2016-Nov-30 10:32N 51°18' E 004°16'0 0.0
2016-Nov-30 09:27N 51°18' E 004°16'0 0.0
2016-Nov-30 08:33N 51°18' E 004°16'0 0.0
2016-Nov-30 07:33N 51°18' E 004°16'0 0.0
2016-Nov-30 06:33N 51°18' E 004°16'0 0.0
2016-Nov-30 05:33N 51°18' E 004°16'0 0.0
2016-Nov-30 04:33N 51°18' E 004°16'0 0.0
2016-Nov-30 03:32N 51°18' E 004°16'0 0.0
2016-Nov-30 02:32N 51°18' E 004°16'0 0.0
2016-Nov-30 01:31N 51°18' E 004°16'0 0.0
2016-Nov-30 00:31N 51°18' E 004°16'0 0.0
2016-Nov-29 23:28N 51°18' E 004°16'0 0.0
2016-Nov-29 22:22N 51°18' E 004°16'0 0.0
2016-Nov-29 21:33N 51°18' E 004°16'1 1.1
2016-Nov-29 20:33N 51°19' E 004°16'7 6.6
2016-Nov-29 19:33N 51°22' E 004°07'8 7.7
2016-Nov-29 18:33N 51°22' E 003°55'10 9.8
2016-Nov-29 17:33N 51°26' E 003°41'1514.6
2016-Nov-29 16:34N 51°24' E 003°17'1616.4
2016-Nov-29 15:33N 51°25' E 002°51'1212.0
2016-Nov-29 14:34N 51°22' E 002°33'1616.3
2016-Nov-29 13:34N 51°19' E 002°07'1515.4
2016-Nov-29 12:34N 51°32' E 001°52'1616.0
2016-Nov-29 11:34N 51°47' E 001°43'1010.1
2016-Nov-29 10:33N 51°42' E 001°29'1616.4
2016-Nov-29 09:34N 51°32' E 001°08'1514.8
2016-Nov-29 08:33N 51°30' E 000°44'9 8.9
2016-Nov-29 07:34N 51°30' E 000°30'0 0.1
2016-Nov-29 06:34N 51°30' E 000°30'0 0.0
2016-Nov-29 05:33N 51°30' E 000°30'0 0.0
2016-Nov-29 04:33N 51°30' E 000°30'0 0.0
2016-Nov-29 03:34N 51°30' E 000°30'0 0.0
2016-Nov-29 02:34N 51°30' E 000°30'0 0.0
2016-Nov-29 01:34N 51°30' E 000°30'0 0.0
2016-Nov-29 00:33N 51°30' E 000°30'0 0.0
2016-Nov-28 23:33N 51°30' E 000°30'0 0.0
2016-Nov-28 22:34N 51°30' E 000°30'0 0.0
2016-Nov-28 21:33N 51°30' E 000°30'0 0.0
2016-Nov-28 20:33N 51°30' E 000°30'0 0.0
2016-Nov-28 19:33N 51°30' E 000°30'0 0.0
2016-Nov-28 18:34N 51°30' E 000°30'2 1.6
2016-Nov-28 17:33N 51°30' E 000°33'1414.0
2016-Nov-28 16:34N 51°29' E 000°55'1616.1
2016-Nov-28 15:34N 51°36' E 001°18'1616.3
2016-Nov-28 14:34N 51°49' E 001°34'9 9.3
2016-Nov-28 13:34N 51°50' E 001°49'15817.5
2016-Nov-28 04:32N 53°35' E 005°03'1717.4
2016-Nov-28 03:34N 53°40' E 005°31'1717.4
2016-Nov-28 02:33N 53°46' E 005°59'1817.7
2016-Nov-28 01:34N 53°51' E 006°27'5617.8
2016-Nov-27 22:24N 54°01' E 008°01'1314.7
2016-Nov-27 21:30N 53°59' E 008°23'1313.2
2016-Nov-27 20:33N 53°54' E 008°42'1312.5
2016-Nov-27 19:33N 53°52' E 009°03'1110.8
2016-Nov-27 18:33N 53°50' E 009°21'1514.8
2016-Nov-27 17:33N 53°37' E 009°33'1212.3
2016-Nov-27 16:33N 53°33' E 009°53'2 2.0
2016-Nov-27 15:33N 53°32' E 009°56'0 0.0
2016-Nov-27 14:33N 53°32' E 009°56'0 0.0
2016-Nov-27 13:33N 53°32' E 009°56'0 0.0
2016-Nov-27 12:32N 53°32' E 009°56'0 0.0
2016-Nov-27 11:33N 53°32' E 009°56'0 0.0
2016-Nov-27 10:34N 53°32' E 009°55'0 0.0
2016-Nov-27 09:32N 53°32' E 009°56'0 0.0
2016-Nov-27 08:31N 53°32' E 009°56'0 0.0
2016-Nov-27 07:33N 53°32' E 009°56'0 0.0
2016-Nov-27 06:32N 53°32' E 009°56'0 0.0
2016-Nov-27 05:33N 53°32' E 009°56'0 0.0
2016-Nov-27 04:32N 53°32' E 009°56'0 0.0
2016-Nov-27 03:32N 53°32' E 009°56'0 0.0
2016-Nov-27 02:32N 53°32' E 009°56'0 0.0
2016-Nov-27 01:32N 53°32' E 009°56'0 0.0
2016-Nov-27 00:32N 53°32' E 009°56'0 0.0
2016-Nov-26 23:33N 53°32' E 009°56'0 0.0
2016-Nov-26 22:33N 53°32' E 009°56'0 0.0
2016-Nov-26 21:32N 53°32' E 009°56'0 0.0
2016-Nov-26 20:32N 53°32' E 009°56'0 0.0
2016-Nov-26 19:32N 53°32' E 009°56'0 0.0
2016-Nov-26 18:32N 53°32' E 009°56'0 0.0
2016-Nov-26 17:32N 53°32' E 009°56'0 0.0
2016-Nov-26 16:32N 53°32' E 009°56'0 0.0
2016-Nov-26 15:32N 53°32' E 009°56'0 0.0
2016-Nov-26 14:33N 53°32' E 009°56'0 0.0
2016-Nov-26 13:31N 53°32' E 009°56'0 0.0
2016-Nov-26 12:32N 53°32' E 009°56'0 0.0
2016-Nov-26 11:33N 53°32' E 009°56'0 0.0
2016-Nov-26 10:32N 53°32' E 009°56'0 0.0
2016-Nov-26 09:33N 53°32' E 009°56'0 0.0
2016-Nov-26 08:33N 53°32' E 009°56'0 0.0
2016-Nov-26 07:33N 53°32' E 009°56'0 0.0
2016-Nov-26 06:32N 53°32' E 009°56'0 0.0
2016-Nov-26 05:32N 53°32' E 009°56'0 0.0
2016-Nov-26 04:32N 53°32' E 009°56'0 0.0
2016-Nov-26 03:31N 53°32' E 009°56'0 0.0
2016-Nov-26 02:31N 53°32' E 009°56'0 0.0
2016-Nov-26 01:32N 53°32' E 009°56'0 0.0
2016-Nov-26 00:32N 53°32' E 009°56'0 0.0
2016-Nov-25 23:32N 53°32' E 009°56'0 0.0
2016-Nov-25 22:32N 53°32' E 009°56'0 0.0
2016-Nov-25 21:32N 53°32' E 009°56'0 0.0
2016-Nov-25 20:32N 53°32' E 009°56'0 0.0
2016-Nov-25 19:32N 53°32' E 009°56'0 0.0
2016-Nov-25 18:32N 53°32' E 009°56'0 0.0
2016-Nov-25 17:33N 53°32' E 009°56'0 0.0
2016-Nov-25 16:33N 53°32' E 009°56'0 0.0
2016-Nov-25 15:33N 53°32' E 009°56'0 0.0
2016-Nov-25 14:33N 53°32' E 009°56'0 0.0
2016-Nov-25 13:33N 53°32' E 009°56'0 0.0
2016-Nov-25 12:33N 53°32' E 009°56'0 0.0
2016-Nov-25 11:33N 53°32' E 009°56'0 0.0
2016-Nov-25 10:34N 53°32' E 009°56'0 0.0
2016-Nov-25 09:33N 53°32' E 009°56'0 0.0
2016-Nov-25 08:33N 53°32' E 009°56'0 0.0
2016-Nov-25 07:33N 53°32' E 009°56'0 0.0
2016-Nov-25 06:33N 53°32' E 009°56'2 1.9
2016-Nov-25 05:33N 53°32' E 009°53'4 4.4
2016-Nov-25 04:33N 53°34' E 009°46'1010.4
2016-Nov-25 03:33N 53°39' E 009°31'1211.9
2016-Nov-25 02:34N 53°50' E 009°21'1111.1
2016-Nov-25 01:34N 53°52' E 009°03'1212.0
2016-Nov-25 00:34N 53°53' E 008°42'1514.9
2016-Nov-24 23:33N 53°59' E 008°20'1111.2
2016-Nov-24 22:33N 53°59' E 008°01'1614.1
2016-Nov-24 21:24N 53°56' E 007°34'  

Dump ship's entire track history